sensor_id;sensor_type;location;lat;lon;timestamp;P1;durP1;ratioP1;P2;durP2;ratioP2
10387;SDS011;5240;51.128;4.566;2023-04-07T00:00:37;14.60;;;8.77;;
10387;SDS011;5240;51.128;4.566;2023-04-07T00:03:06;13.77;;;9.30;;
10387;SDS011;5240;51.128;4.566;2023-04-07T00:05:33;11.85;;;9.38;;
10387;SDS011;5240;51.128;4.566;2023-04-07T00:08:00;14.02;;;9.32;;
10387;SDS011;5240;51.128;4.566;2023-04-07T00:10:27;13.43;;;8.75;;
10387;SDS011;5240;51.128;4.566;2023-04-07T00:12:54;14.05;;;8.85;;
10387;SDS011;5240;51.128;4.566;2023-04-07T00:15:21;14.32;;;8.68;;
10387;SDS011;5240;51.128;4.566;2023-04-07T00:17:48;15.10;;;8.65;;
10387;SDS011;5240;51.128;4.566;2023-04-07T00:20:16;12.85;;;7.45;;
10387;SDS011;5240;51.128;4.566;2023-04-07T00:22:43;14.10;;;8.57;;
10387;SDS011;5240;51.128;4.566;2023-04-07T00:25:10;15.90;;;8.70;;
10387;SDS011;5240;51.128;4.566;2023-04-07T00:27:37;15.38;;;8.18;;
10387;SDS011;5240;51.128;4.566;2023-04-07T00:30:05;12.70;;;8.77;;
10387;SDS011;5240;51.128;4.566;2023-04-07T00:32:33;12.13;;;8.10;;
10387;SDS011;5240;51.128;4.566;2023-04-07T00:35:00;14.38;;;9.32;;
10387;SDS011;5240;51.128;4.566;2023-04-07T00:37:28;17.00;;;9.35;;
10387;SDS011;5240;51.128;4.566;2023-04-07T00:39:55;15.82;;;9.65;;
10387;SDS011;5240;51.128;4.566;2023-04-07T00:42:23;15.63;;;9.43;;
10387;SDS011;5240;51.128;4.566;2023-04-07T00:44:50;18.92;;;10.65;;
10387;SDS011;5240;51.128;4.566;2023-04-07T00:47:17;17.77;;;9.43;;
10387;SDS011;5240;51.128;4.566;2023-04-07T00:49:45;14.82;;;9.48;;
10387;SDS011;5240;51.128;4.566;2023-04-07T00:52:12;18.15;;;10.65;;
10387;SDS011;5240;51.128;4.566;2023-04-07T00:54:42;16.80;;;10.63;;
10387;SDS011;5240;51.128;4.566;2023-04-07T00:57:11;18.98;;;10.40;;
10387;SDS011;5240;51.128;4.566;2023-04-07T00:59:38;20.45;;;11.63;;
10387;SDS011;5240;51.128;4.566;2023-04-07T01:02:07;23.95;;;11.45;;
10387;SDS011;5240;51.128;4.566;2023-04-07T01:04:38;21.92;;;11.10;;
10387;SDS011;5240;51.128;4.566;2023-04-07T01:07:13;16.60;;;10.88;;
10387;SDS011;5240;51.128;4.566;2023-04-07T01:09:45;18.95;;;11.45;;
10387;SDS011;5240;51.128;4.566;2023-04-07T01:12:21;20.85;;;11.90;;
10387;SDS011;5240;51.128;4.566;2023-04-07T01:14:54;16.90;;;11.63;;
10387;SDS011;5240;51.128;4.566;2023-04-07T01:17:28;19.20;;;11.93;;
10387;SDS011;5240;51.128;4.566;2023-04-07T01:19:58;22.40;;;12.80;;
10387;SDS011;5240;51.128;4.566;2023-04-07T01:22:31;21.25;;;12.80;;
10387;SDS011;5240;51.128;4.566;2023-04-07T01:25:21;19.92;;;12.02;;
10387;SDS011;5240;51.128;4.566;2023-04-07T01:27:58;20.30;;;13.73;;
10387;SDS011;5240;51.128;4.566;2023-04-07T01:30:38;23.95;;;13.10;;
10387;SDS011;5240;51.128;4.566;2023-04-07T01:33:06;23.48;;;13.20;;
10387;SDS011;5240;51.128;4.566;2023-04-07T01:35:35;21.80;;;13.88;;
10387;SDS011;5240;51.128;4.566;2023-04-07T01:38:04;24.30;;;13.85;;
10387;SDS011;5240;51.128;4.566;2023-04-07T01:40:31;20.95;;;14.70;;
10387;SDS011;5240;51.128;4.566;2023-04-07T01:43:00;21.30;;;15.00;;
10387;SDS011;5240;51.128;4.566;2023-04-07T01:45:27;24.10;;;14.68;;
10387;SDS011;5240;51.128;4.566;2023-04-07T01:48:00;27.63;;;15.23;;
10387;SDS011;5240;51.128;4.566;2023-04-07T01:50:30;25.25;;;14.85;;
10387;SDS011;5240;51.128;4.566;2023-04-07T01:52:58;22.73;;;14.38;;
10387;SDS011;5240;51.128;4.566;2023-04-07T01:55:25;22.67;;;16.20;;
10387;SDS011;5240;51.128;4.566;2023-04-07T01:57:53;24.08;;;15.43;;
10387;SDS011;5240;51.128;4.566;2023-04-07T02:00:20;25.95;;;16.25;;
10387;SDS011;5240;51.128;4.566;2023-04-07T02:02:48;26.70;;;15.57;;
10387;SDS011;5240;51.128;4.566;2023-04-07T02:05:21;23.85;;;16.40;;
10387;SDS011;5240;51.128;4.566;2023-04-07T02:07:50;21.88;;;16.25;;
10387;SDS011;5240;51.128;4.566;2023-04-07T02:10:20;20.92;;;15.48;;
10387;SDS011;5240;51.128;4.566;2023-04-07T02:12:49;26.02;;;15.38;;
10387;SDS011;5240;51.128;4.566;2023-04-07T02:15:17;26.73;;;16.08;;
10387;SDS011;5240;51.128;4.566;2023-04-07T02:17:46;23.90;;;16.88;;
10387;SDS011;5240;51.128;4.566;2023-04-07T02:20:15;24.65;;;17.00;;
10387;SDS011;5240;51.128;4.566;2023-04-07T02:22:44;24.48;;;16.27;;
10387;SDS011;5240;51.128;4.566;2023-04-07T02:25:21;28.10;;;18.05;;
10387;SDS011;5240;51.128;4.566;2023-04-07T02:27:50;25.35;;;17.38;;
10387;SDS011;5240;51.128;4.566;2023-04-07T02:30:17;27.95;;;18.42;;
10387;SDS011;5240;51.128;4.566;2023-04-07T02:32:44;27.00;;;17.23;;
10387;SDS011;5240;51.128;4.566;2023-04-07T02:35:11;30.73;;;19.02;;
10387;SDS011;5240;51.128;4.566;2023-04-07T02:37:40;31.45;;;20.05;;
10387;SDS011;5240;51.128;4.566;2023-04-07T02:40:09;30.65;;;19.27;;
10387;SDS011;5240;51.128;4.566;2023-04-07T02:42:36;34.33;;;20.67;;
10387;SDS011;5240;51.128;4.566;2023-04-07T02:45:04;33.92;;;20.98;;
10387;SDS011;5240;51.128;4.566;2023-04-07T02:47:31;31.42;;;21.08;;
10387;SDS011;5240;51.128;4.566;2023-04-07T02:49:59;30.23;;;21.60;;
10387;SDS011;5240;51.128;4.566;2023-04-07T02:52:26;29.92;;;21.15;;
10387;SDS011;5240;51.128;4.566;2023-04-07T02:54:53;37.13;;;23.40;;
10387;SDS011;5240;51.128;4.566;2023-04-07T02:57:21;35.00;;;22.77;;
10387;SDS011;5240;51.128;4.566;2023-04-07T02:59:48;30.73;;;22.25;;
10387;SDS011;5240;51.128;4.566;2023-04-07T03:02:15;34.97;;;22.30;;
10387;SDS011;5240;51.128;4.566;2023-04-07T03:04:42;34.92;;;23.08;;
10387;SDS011;5240;51.128;4.566;2023-04-07T03:07:09;36.55;;;23.25;;
10387;SDS011;5240;51.128;4.566;2023-04-07T03:09:36;36.05;;;22.98;;
10387;SDS011;5240;51.128;4.566;2023-04-07T03:12:03;35.33;;;23.38;;
10387;SDS011;5240;51.128;4.566;2023-04-07T03:14:32;36.22;;;23.30;;
10387;SDS011;5240;51.128;4.566;2023-04-07T03:16:59;35.95;;;24.08;;
10387;SDS011;5240;51.128;4.566;2023-04-07T03:19:26;36.60;;;24.05;;
10387;SDS011;5240;51.128;4.566;2023-04-07T03:21:52;31.98;;;23.48;;
10387;SDS011;5240;51.128;4.566;2023-04-07T03:24:20;33.15;;;23.20;;
10387;SDS011;5240;51.128;4.566;2023-04-07T03:26:47;32.75;;;23.30;;
10387;SDS011;5240;51.128;4.566;2023-04-07T03:29:15;37.17;;;24.13;;
10387;SDS011;5240;51.128;4.566;2023-04-07T03:31:43;36.65;;;23.75;;
10387;SDS011;5240;51.128;4.566;2023-04-07T03:34:10;39.78;;;24.65;;
10387;SDS011;5240;51.128;4.566;2023-04-07T03:36:37;34.30;;;23.73;;
10387;SDS011;5240;51.128;4.566;2023-04-07T03:39:04;36.97;;;25.13;;
10387;SDS011;5240;51.128;4.566;2023-04-07T03:41:31;42.85;;;25.17;;
10387;SDS011;5240;51.128;4.566;2023-04-07T03:43:58;34.17;;;23.35;;
10387;SDS011;5240;51.128;4.566;2023-04-07T03:46:25;40.63;;;25.52;;
10387;SDS011;5240;51.128;4.566;2023-04-07T03:48:54;43.50;;;26.15;;
10387;SDS011;5240;51.128;4.566;2023-04-07T03:51:21;42.33;;;25.98;;
10387;SDS011;5240;51.128;4.566;2023-04-07T03:53:48;44.35;;;26.85;;
10387;SDS011;5240;51.128;4.566;2023-04-07T03:56:15;38.75;;;27.10;;
10387;SDS011;5240;51.128;4.566;2023-04-07T03:58:42;39.72;;;26.10;;
10387;SDS011;5240;51.128;4.566;2023-04-07T04:01:10;43.00;;;25.85;;
10387;SDS011;5240;51.128;4.566;2023-04-07T04:03:37;40.00;;;27.35;;
10387;SDS011;5240;51.128;4.566;2023-04-07T04:06:06;44.45;;;25.55;;
10387;SDS011;5240;51.128;4.566;2023-04-07T04:08:33;38.22;;;25.55;;
10387;SDS011;5240;51.128;4.566;2023-04-07T04:11:00;41.63;;;26.35;;
10387;SDS011;5240;51.128;4.566;2023-04-07T04:13:27;38.83;;;25.67;;
10387;SDS011;5240;51.128;4.566;2023-04-07T04:15:54;44.45;;;27.58;;
10387;SDS011;5240;51.128;4.566;2023-04-07T04:18:21;42.65;;;26.17;;
10387;SDS011;5240;51.128;4.566;2023-04-07T04:20:48;43.30;;;27.90;;
10387;SDS011;5240;51.128;4.566;2023-04-07T04:23:17;47.55;;;27.77;;
10387;SDS011;5240;51.128;4.566;2023-04-07T04:25:44;49.85;;;29.35;;
10387;SDS011;5240;51.128;4.566;2023-04-07T04:28:11;49.35;;;28.33;;
10387;SDS011;5240;51.128;4.566;2023-04-07T04:30:37;47.22;;;28.73;;
10387;SDS011;5240;51.128;4.566;2023-04-07T04:33:05;42.90;;;27.25;;
10387;SDS011;5240;51.128;4.566;2023-04-07T04:35:33;43.42;;;27.77;;
10387;SDS011;5240;51.128;4.566;2023-04-07T04:38:00;45.92;;;26.95;;
10387;SDS011;5240;51.128;4.566;2023-04-07T04:40:28;43.95;;;26.45;;
10387;SDS011;5240;51.128;4.566;2023-04-07T04:42:55;42.42;;;26.15;;
10387;SDS011;5240;51.128;4.566;2023-04-07T04:45:22;38.00;;;25.70;;
10387;SDS011;5240;51.128;4.566;2023-04-07T04:47:49;47.47;;;27.88;;
10387;SDS011;5240;51.128;4.566;2023-04-07T04:50:16;40.90;;;25.92;;
10387;SDS011;5240;51.128;4.566;2023-04-07T04:52:43;45.30;;;26.55;;
10387;SDS011;5240;51.128;4.566;2023-04-07T04:55:10;45.33;;;26.13;;
10387;SDS011;5240;51.128;4.566;2023-04-07T04:57:39;49.88;;;27.15;;
10387;SDS011;5240;51.128;4.566;2023-04-07T05:00:06;60.40;;;35.38;;
10387;SDS011;5240;51.128;4.566;2023-04-07T05:02:34;50.70;;;27.55;;
10387;SDS011;5240;51.128;4.566;2023-04-07T05:05:01;46.38;;;26.73;;
10387;SDS011;5240;51.128;4.566;2023-04-07T05:07:29;48.72;;;26.67;;
10387;SDS011;5240;51.128;4.566;2023-04-07T05:09:55;45.60;;;27.25;;
10387;SDS011;5240;51.128;4.566;2023-04-07T05:12:22;43.95;;;26.55;;
10387;SDS011;5240;51.128;4.566;2023-04-07T05:14:51;47.13;;;27.42;;
10387;SDS011;5240;51.128;4.566;2023-04-07T05:17:18;50.10;;;27.58;;
10387;SDS011;5240;51.128;4.566;2023-04-07T05:19:45;44.53;;;25.52;;
10387;SDS011;5240;51.128;4.566;2023-04-07T05:22:12;46.40;;;27.88;;
10387;SDS011;5240;51.128;4.566;2023-04-07T05:24:39;49.45;;;28.00;;
10387;SDS011;5240;51.128;4.566;2023-04-07T05:27:06;45.67;;;27.98;;
10387;SDS011;5240;51.128;4.566;2023-04-07T05:29:33;49.25;;;26.85;;
10387;SDS011;5240;51.128;4.566;2023-04-07T05:32:03;49.65;;;27.50;;
10387;SDS011;5240;51.128;4.566;2023-04-07T05:34:30;42.53;;;25.73;;
10387;SDS011;5240;51.128;4.566;2023-04-07T05:36:57;44.28;;;26.15;;
10387;SDS011;5240;51.128;4.566;2023-04-07T05:39:24;40.75;;;24.45;;
10387;SDS011;5240;51.128;4.566;2023-04-07T05:41:51;44.42;;;25.52;;
10387;SDS011;5240;51.128;4.566;2023-04-07T05:44:18;38.95;;;23.80;;
10387;SDS011;5240;51.128;4.566;2023-04-07T05:46:45;39.63;;;24.75;;
10387;SDS011;5240;51.128;4.566;2023-04-07T05:49:14;46.53;;;25.00;;
10387;SDS011;5240;51.128;4.566;2023-04-07T05:51:41;39.70;;;23.63;;
10387;SDS011;5240;51.128;4.566;2023-04-07T05:54:08;37.80;;;24.00;;
10387;SDS011;5240;51.128;4.566;2023-04-07T05:56:35;36.00;;;22.60;;
10387;SDS011;5240;51.128;4.566;2023-04-07T05:59:02;38.03;;;22.98;;
10387;SDS011;5240;51.128;4.566;2023-04-07T06:01:29;33.85;;;20.95;;
10387;SDS011;5240;51.128;4.566;2023-04-07T06:03:56;33.42;;;20.95;;
10387;SDS011;5240;51.128;4.566;2023-04-07T06:06:25;30.42;;;20.42;;
10387;SDS011;5240;51.128;4.566;2023-04-07T06:08:52;29.83;;;19.70;;
10387;SDS011;5240;51.128;4.566;2023-04-07T06:11:19;32.40;;;19.77;;
10387;SDS011;5240;51.128;4.566;2023-04-07T06:13:46;29.45;;;18.50;;
10387;SDS011;5240;51.128;4.566;2023-04-07T06:16:13;29.50;;;18.10;;
10387;SDS011;5240;51.128;4.566;2023-04-07T06:18:40;25.77;;;16.25;;
10387;SDS011;5240;51.128;4.566;2023-04-07T06:21:07;28.60;;;15.70;;
10387;SDS011;5240;51.128;4.566;2023-04-07T06:23:36;27.23;;;16.83;;
10387;SDS011;5240;51.128;4.566;2023-04-07T06:26:03;30.10;;;17.38;;
10387;SDS011;5240;51.128;4.566;2023-04-07T06:28:30;26.10;;;17.33;;
10387;SDS011;5240;51.128;4.566;2023-04-07T06:30:57;25.50;;;14.60;;
10387;SDS011;5240;51.128;4.566;2023-04-07T06:33:24;23.75;;;14.55;;
10387;SDS011;5240;51.128;4.566;2023-04-07T06:35:52;21.23;;;11.60;;
10387;SDS011;5240;51.128;4.566;2023-04-07T06:38:20;20.05;;;11.93;;
10387;SDS011;5240;51.128;4.566;2023-04-07T06:40:49;20.23;;;12.43;;
10387;SDS011;5240;51.128;4.566;2023-04-07T06:43:16;20.65;;;12.02;;
10387;SDS011;5240;51.128;4.566;2023-04-07T06:45:43;14.25;;;9.48;;
10387;SDS011;5240;51.128;4.566;2023-04-07T06:48:10;13.70;;;9.63;;
10387;SDS011;5240;51.128;4.566;2023-04-07T06:50:37;13.40;;;9.23;;
10387;SDS011;5240;51.128;4.566;2023-04-07T06:53:04;13.52;;;8.32;;
10387;SDS011;5240;51.128;4.566;2023-04-07T06:55:31;11.27;;;8.15;;
10387;SDS011;5240;51.128;4.566;2023-04-07T06:58:00;13.82;;;9.15;;
10387;SDS011;5240;51.128;4.566;2023-04-07T07:00:27;13.70;;;9.05;;
10387;SDS011;5240;51.128;4.566;2023-04-07T07:02:55;13.95;;;9.15;;
10387;SDS011;5240;51.128;4.566;2023-04-07T07:05:22;14.45;;;9.45;;
10387;SDS011;5240;51.128;4.566;2023-04-07T07:07:49;14.32;;;9.30;;
10387;SDS011;5240;51.128;4.566;2023-04-07T07:10:16;13.52;;;9.00;;
10387;SDS011;5240;51.128;4.566;2023-04-07T07:12:44;16.05;;;9.32;;
10387;SDS011;5240;51.128;4.566;2023-04-07T07:15:13;11.63;;;9.27;;
10387;SDS011;5240;51.128;4.566;2023-04-07T07:17:40;13.05;;;8.90;;
10387;SDS011;5240;51.128;4.566;2023-04-07T07:20:07;13.95;;;9.50;;
10387;SDS011;5240;51.128;4.566;2023-04-07T07:22:35;15.60;;;10.77;;
10387;SDS011;5240;51.128;4.566;2023-04-07T07:25:02;13.68;;;10.45;;
10387;SDS011;5240;51.128;4.566;2023-04-07T07:27:29;14.27;;;9.82;;
10387;SDS011;5240;51.128;4.566;2023-04-07T07:29:56;13.73;;;8.55;;
10387;SDS011;5240;51.128;4.566;2023-04-07T07:32:25;11.32;;;6.70;;
10387;SDS011;5240;51.128;4.566;2023-04-07T07:34:52;9.55;;;5.50;;
10387;SDS011;5240;51.128;4.566;2023-04-07T07:37:19;6.40;;;4.28;;
10387;SDS011;5240;51.128;4.566;2023-04-07T07:39:46;6.22;;;4.50;;
10387;SDS011;5240;51.128;4.566;2023-04-07T07:42:13;10.90;;;4.38;;
10387;SDS011;5240;51.128;4.566;2023-04-07T07:44:40;10.25;;;4.55;;
10387;SDS011;5240;51.128;4.566;2023-04-07T07:47:10;7.05;;;4.43;;
10387;SDS011;5240;51.128;4.566;2023-04-07T07:49:39;5.45;;;4.20;;
10387;SDS011;5240;51.128;4.566;2023-04-07T07:52:06;5.38;;;4.30;;
10387;SDS011;5240;51.128;4.566;2023-04-07T07:54:33;7.47;;;4.30;;
10387;SDS011;5240;51.128;4.566;2023-04-07T07:57:00;10.27;;;4.82;;
10387;SDS011;5240;51.128;4.566;2023-04-07T07:59:27;7.70;;;4.22;;
10387;SDS011;5240;51.128;4.566;2023-04-07T08:01:54;6.15;;;4.03;;
10387;SDS011;5240;51.128;4.566;2023-04-07T08:04:21;11.80;;;3.58;;
10387;SDS011;5240;51.128;4.566;2023-04-07T08:06:49;6.82;;;3.58;;
10387;SDS011;5240;51.128;4.566;2023-04-07T08:09:17;4.68;;;3.28;;
10387;SDS011;5240;51.128;4.566;2023-04-07T08:11:44;5.55;;;3.33;;
10387;SDS011;5240;51.128;4.566;2023-04-07T08:14:12;5.95;;;3.47;;
10387;SDS011;5240;51.128;4.566;2023-04-07T08:16:39;7.45;;;3.75;;
10387;SDS011;5240;51.128;4.566;2023-04-07T08:19:06;7.35;;;3.70;;
10387;SDS011;5240;51.128;4.566;2023-04-07T08:21:33;6.88;;;4.18;;
10387;SDS011;5240;51.128;4.566;2023-04-07T08:24:02;6.47;;;4.38;;
10387;SDS011;5240;51.128;4.566;2023-04-07T08:26:29;10.32;;;4.28;;
10387;SDS011;5240;51.128;4.566;2023-04-07T08:28:56;10.40;;;4.05;;
10387;SDS011;5240;51.128;4.566;2023-04-07T08:31:23;9.45;;;3.67;;
10387;SDS011;5240;51.128;4.566;2023-04-07T08:33:50;8.02;;;3.70;;
10387;SDS011;5240;51.128;4.566;2023-04-07T08:36:18;7.65;;;3.45;;
10387;SDS011;5240;51.128;4.566;2023-04-07T08:38:45;9.55;;;3.15;;
10387;SDS011;5240;51.128;4.566;2023-04-07T08:41:16;6.63;;;2.50;;
10387;SDS011;5240;51.128;4.566;2023-04-07T08:43:51;8.45;;;2.88;;
10387;SDS011;5240;51.128;4.566;2023-04-07T08:46:19;5.40;;;3.05;;
10387;SDS011;5240;51.128;4.566;2023-04-07T08:48:48;6.30;;;3.47;;
10387;SDS011;5240;51.128;4.566;2023-04-07T08:51:18;7.68;;;3.78;;
10387;SDS011;5240;51.128;4.566;2023-04-07T08:53:51;6.40;;;4.20;;
10387;SDS011;5240;51.128;4.566;2023-04-07T08:56:21;5.80;;;3.70;;
10387;SDS011;5240;51.128;4.566;2023-04-07T08:58:50;6.45;;;4.00;;
10387;SDS011;5240;51.128;4.566;2023-04-07T09:01:17;7.45;;;3.97;;
10387;SDS011;5240;51.128;4.566;2023-04-07T09:03:45;8.57;;;3.63;;
10387;SDS011;5240;51.128;4.566;2023-04-07T09:06:14;7.72;;;3.88;;
10387;SDS011;5240;51.128;4.566;2023-04-07T09:08:42;5.78;;;2.78;;
10387;SDS011;5240;51.128;4.566;2023-04-07T09:11:09;6.85;;;3.33;;
10387;SDS011;5240;51.128;4.566;2023-04-07T09:13:38;4.15;;;2.90;;
10387;SDS011;5240;51.128;4.566;2023-04-07T09:16:05;7.13;;;3.00;;
10387;SDS011;5240;51.128;4.566;2023-04-07T09:18:32;8.93;;;3.00;;
10387;SDS011;5240;51.128;4.566;2023-04-07T09:21:00;5.82;;;2.65;;
10387;SDS011;5240;51.128;4.566;2023-04-07T09:23:29;7.05;;;2.72;;
10387;SDS011;5240;51.128;4.566;2023-04-07T09:25:58;6.03;;;3.63;;
10387;SDS011;5240;51.128;4.566;2023-04-07T09:28:38;11.02;;;3.60;;
10387;SDS011;5240;51.128;4.566;2023-04-07T09:31:07;7.70;;;3.30;;
10387;SDS011;5240;51.128;4.566;2023-04-07T09:33:34;11.77;;;3.38;;
10387;SDS011;5240;51.128;4.566;2023-04-07T09:36:01;10.45;;;3.65;;
10387;SDS011;5240;51.128;4.566;2023-04-07T09:38:31;9.30;;;3.40;;
10387;SDS011;5240;51.128;4.566;2023-04-07T09:41:04;8.27;;;3.15;;
10387;SDS011;5240;51.128;4.566;2023-04-07T09:43:32;12.80;;;3.40;;
10387;SDS011;5240;51.128;4.566;2023-04-07T09:46:09;9.10;;;2.95;;
10387;SDS011;5240;51.128;4.566;2023-04-07T09:48:38;10.15;;;2.83;;
10387;SDS011;5240;51.128;4.566;2023-04-07T09:51:05;7.82;;;3.03;;
10387;SDS011;5240;51.128;4.566;2023-04-07T09:53:44;11.80;;;2.83;;
10387;SDS011;5240;51.128;4.566;2023-04-07T09:56:13;12.63;;;2.90;;
10387;SDS011;5240;51.128;4.566;2023-04-07T09:58:42;12.38;;;3.28;;
10387;SDS011;5240;51.128;4.566;2023-04-07T10:01:13;12.13;;;2.85;;
10387;SDS011;5240;51.128;4.566;2023-04-07T10:03:41;5.18;;;2.50;;
10387;SDS011;5240;51.128;4.566;2023-04-07T10:06:09;13.90;;;3.05;;
10387;SDS011;5240;51.128;4.566;2023-04-07T10:08:36;10.25;;;2.90;;
10387;SDS011;5240;51.128;4.566;2023-04-07T10:11:05;8.70;;;3.72;;
10387;SDS011;5240;51.128;4.566;2023-04-07T10:13:32;10.23;;;3.20;;
10387;SDS011;5240;51.128;4.566;2023-04-07T10:16:02;6.47;;;2.97;;
10387;SDS011;5240;51.128;4.566;2023-04-07T10:18:32;25.25;;;3.72;;
10387;SDS011;5240;51.128;4.566;2023-04-07T10:21:02;6.25;;;2.08;;
10387;SDS011;5240;51.128;4.566;2023-04-07T10:23:36;8.15;;;2.40;;
10387;SDS011;5240;51.128;4.566;2023-04-07T10:26:18;6.18;;;2.35;;
10387;SDS011;5240;51.128;4.566;2023-04-07T10:28:50;10.68;;;3.08;;
10387;SDS011;5240;51.128;4.566;2023-04-07T10:31:21;10.55;;;2.50;;
10387;SDS011;5240;51.128;4.566;2023-04-07T10:33:50;7.70;;;2.17;;
10387;SDS011;5240;51.128;4.566;2023-04-07T10:36:20;6.18;;;2.47;;
10387;SDS011;5240;51.128;4.566;2023-04-07T10:41:49;9.65;;;3.10;;
10387;SDS011;5240;51.128;4.566;2023-04-07T10:47:24;8.02;;;3.30;;
10387;SDS011;5240;51.128;4.566;2023-04-07T10:52:43;7.07;;;3.28;;
10387;SDS011;5240;51.128;4.566;2023-04-07T10:58:15;11.48;;;3.90;;
10387;SDS011;5240;51.128;4.566;2023-04-07T11:03:51;12.05;;;3.40;;
10387;SDS011;5240;51.128;4.566;2023-04-07T11:06:24;7.53;;;2.92;;
10387;SDS011;5240;51.128;4.566;2023-04-07T11:08:52;9.73;;;3.20;;
10387;SDS011;5240;51.128;4.566;2023-04-07T11:11:33;9.10;;;3.00;;
10387;SDS011;5240;51.128;4.566;2023-04-07T11:14:04;7.72;;;2.85;;
10387;SDS011;5240;51.128;4.566;2023-04-07T11:16:36;8.25;;;2.95;;
10387;SDS011;5240;51.128;4.566;2023-04-07T11:19:05;11.35;;;2.60;;
10387;SDS011;5240;51.128;4.566;2023-04-07T11:21:33;9.55;;;2.70;;
10387;SDS011;5240;51.128;4.566;2023-04-07T11:24:00;10.90;;;2.88;;
10387;SDS011;5240;51.128;4.566;2023-04-07T11:26:27;6.43;;;2.50;;
10387;SDS011;5240;51.128;4.566;2023-04-07T11:28:55;6.57;;;2.42;;
10387;SDS011;5240;51.128;4.566;2023-04-07T11:31:23;10.00;;;2.35;;
10387;SDS011;5240;51.128;4.566;2023-04-07T11:33:52;12.00;;;2.67;;
10387;SDS011;5240;51.128;4.566;2023-04-07T11:36:27;6.03;;;2.63;;
10387;SDS011;5240;51.128;4.566;2023-04-07T11:38:56;9.85;;;3.08;;
10387;SDS011;5240;51.128;4.566;2023-04-07T11:41:24;8.23;;;3.03;;
10387;SDS011;5240;51.128;4.566;2023-04-07T11:44:05;8.40;;;2.75;;
10387;SDS011;5240;51.128;4.566;2023-04-07T11:46:33;6.28;;;2.83;;
10387;SDS011;5240;51.128;4.566;2023-04-07T11:49:07;8.85;;;4.00;;
10387;SDS011;5240;51.128;4.566;2023-04-07T11:51:36;16.65;;;8.23;;
10387;SDS011;5240;51.128;4.566;2023-04-07T11:54:04;6.82;;;2.38;;
10387;SDS011;5240;51.128;4.566;2023-04-07T11:56:40;8.40;;;2.60;;
10387;SDS011;5240;51.128;4.566;2023-04-07T11:59:16;3.42;;;2.30;;
10387;SDS011;5240;51.128;4.566;2023-04-07T12:01:45;7.13;;;2.30;;
10387;SDS011;5240;51.128;4.566;2023-04-07T12:04:12;6.63;;;2.10;;
10387;SDS011;5240;51.128;4.566;2023-04-07T12:06:40;6.88;;;2.20;;
10387;SDS011;5240;51.128;4.566;2023-04-07T12:09:23;8.30;;;2.20;;
10387;SDS011;5240;51.128;4.566;2023-04-07T12:11:52;6.00;;;2.25;;
10387;SDS011;5240;51.128;4.566;2023-04-07T12:14:20;6.43;;;2.20;;
10387;SDS011;5240;51.128;4.566;2023-04-07T12:16:47;5.53;;;2.33;;
10387;SDS011;5240;51.128;4.566;2023-04-07T12:19:14;5.55;;;1.80;;
10387;SDS011;5240;51.128;4.566;2023-04-07T12:21:42;6.45;;;2.55;;
10387;SDS011;5240;51.128;4.566;2023-04-07T12:24:10;4.63;;;2.10;;
10387;SDS011;5240;51.128;4.566;2023-04-07T12:26:37;5.13;;;2.30;;
10387;SDS011;5240;51.128;4.566;2023-04-07T12:29:04;2.60;;;1.90;;
10387;SDS011;5240;51.128;4.566;2023-04-07T12:31:31;4.88;;;2.10;;
10387;SDS011;5240;51.128;4.566;2023-04-07T12:33:58;5.30;;;2.40;;
10387;SDS011;5240;51.128;4.566;2023-04-07T12:36:26;4.43;;;2.00;;
10387;SDS011;5240;51.128;4.566;2023-04-07T12:38:54;6.75;;;2.72;;
10387;SDS011;5240;51.128;4.566;2023-04-07T12:41:23;5.75;;;2.58;;
10387;SDS011;5240;51.128;4.566;2023-04-07T12:43:50;5.63;;;2.13;;
10387;SDS011;5240;51.128;4.566;2023-04-07T12:46:18;5.32;;;2.20;;
10387;SDS011;5240;51.128;4.566;2023-04-07T12:48:45;3.90;;;1.83;;
10387;SDS011;5240;51.128;4.566;2023-04-07T12:51:13;10.10;;;2.60;;
10387;SDS011;5240;51.128;4.566;2023-04-07T12:53:40;6.18;;;2.08;;
10387;SDS011;5240;51.128;4.566;2023-04-07T12:56:07;4.35;;;1.90;;
10387;SDS011;5240;51.128;4.566;2023-04-07T12:58:38;6.28;;;2.20;;
10387;SDS011;5240;51.128;4.566;2023-04-07T13:01:05;4.93;;;2.42;;
10387;SDS011;5240;51.128;4.566;2023-04-07T13:03:32;4.75;;;2.10;;
10387;SDS011;5240;51.128;4.566;2023-04-07T13:05:59;5.93;;;2.50;;
10387;SDS011;5240;51.128;4.566;2023-04-07T13:08:26;5.40;;;2.55;;
10387;SDS011;5240;51.128;4.566;2023-04-07T13:10:54;9.68;;;2.40;;
10387;SDS011;5240;51.128;4.566;2023-04-07T13:13:21;10.60;;;2.72;;
10387;SDS011;5240;51.128;4.566;2023-04-07T13:15:50;6.88;;;2.58;;
10387;SDS011;5240;51.128;4.566;2023-04-07T13:18:17;5.93;;;2.60;;
10387;SDS011;5240;51.128;4.566;2023-04-07T13:20:44;7.43;;;2.58;;
10387;SDS011;5240;51.128;4.566;2023-04-07T13:23:11;6.47;;;2.58;;
10387;SDS011;5240;51.128;4.566;2023-04-07T13:25:38;8.25;;;2.53;;
10387;SDS011;5240;51.128;4.566;2023-04-07T13:28:06;6.18;;;2.58;;
10387;SDS011;5240;51.128;4.566;2023-04-07T13:30:33;6.03;;;2.60;;
10387;SDS011;5240;51.128;4.566;2023-04-07T13:33:01;4.90;;;2.40;;
10387;SDS011;5240;51.128;4.566;2023-04-07T13:35:28;4.32;;;2.33;;
10387;SDS011;5240;51.128;4.566;2023-04-07T13:38:00;9.35;;;2.13;;
10387;SDS011;5240;51.128;4.566;2023-04-07T13:40:27;3.20;;;2.17;;
10387;SDS011;5240;51.128;4.566;2023-04-07T13:42:55;2.85;;;1.83;;
10387;SDS011;5240;51.128;4.566;2023-04-07T13:45:22;3.40;;;1.60;;
10387;SDS011;5240;51.128;4.566;2023-04-07T13:47:49;3.72;;;1.75;;
10387;SDS011;5240;51.128;4.566;2023-04-07T13:50:17;3.58;;;1.60;;
10387;SDS011;5240;51.128;4.566;2023-04-07T13:52:44;4.07;;;1.50;;
10387;SDS011;5240;51.128;4.566;2023-04-07T13:55:12;4.55;;;1.50;;
10387;SDS011;5240;51.128;4.566;2023-04-07T13:57:40;4.50;;;1.80;;
10387;SDS011;5240;51.128;4.566;2023-04-07T14:00:08;1.90;;;1.40;;
10387;SDS011;5240;51.128;4.566;2023-04-07T14:02:35;1.40;;;1.30;;
10387;SDS011;5240;51.128;4.566;2023-04-07T14:05:02;3.47;;;1.50;;
10387;SDS011;5240;51.128;4.566;2023-04-07T14:07:31;5.30;;;1.55;;
10387;SDS011;5240;51.128;4.566;2023-04-07T14:09:58;3.85;;;1.55;;
10387;SDS011;5240;51.128;4.566;2023-04-07T14:12:25;6.30;;;1.80;;
10387;SDS011;5240;51.128;4.566;2023-04-07T14:14:52;4.57;;;1.88;;
10387;SDS011;5240;51.128;4.566;2023-04-07T14:17:20;4.18;;;1.77;;
10387;SDS011;5240;51.128;4.566;2023-04-07T14:19:47;4.07;;;2.03;;
10387;SDS011;5240;51.128;4.566;2023-04-07T14:22:14;4.88;;;1.80;;
10387;SDS011;5240;51.128;4.566;2023-04-07T14:24:43;3.75;;;1.55;;
10387;SDS011;5240;51.128;4.566;2023-04-07T14:27:10;7.47;;;1.90;;
10387;SDS011;5240;51.128;4.566;2023-04-07T14:29:38;10.85;;;2.92;;
10387;SDS011;5240;51.128;4.566;2023-04-07T14:32:05;4.03;;;2.00;;
10387;SDS011;5240;51.128;4.566;2023-04-07T14:34:32;5.53;;;2.38;;
10387;SDS011;5240;51.128;4.566;2023-04-07T14:36:59;4.68;;;1.80;;
10387;SDS011;5240;51.128;4.566;2023-04-07T14:39:26;9.70;;;2.20;;
10387;SDS011;5240;51.128;4.566;2023-04-07T14:41:54;5.20;;;1.70;;
10387;SDS011;5240;51.128;4.566;2023-04-07T14:44:21;8.57;;;2.20;;
10387;SDS011;5240;51.128;4.566;2023-04-07T14:46:48;6.53;;;2.15;;
10387;SDS011;5240;51.128;4.566;2023-04-07T14:49:15;5.95;;;2.10;;
10387;SDS011;5240;51.128;4.566;2023-04-07T14:51:42;4.38;;;2.08;;
10387;SDS011;5240;51.128;4.566;2023-04-07T14:54:09;4.28;;;1.80;;
10387;SDS011;5240;51.128;4.566;2023-04-07T14:56:36;5.97;;;1.98;;
10387;SDS011;5240;51.128;4.566;2023-04-07T14:59:04;8.82;;;2.15;;
10387;SDS011;5240;51.128;4.566;2023-04-07T15:01:31;4.93;;;2.00;;
10387;SDS011;5240;51.128;4.566;2023-04-07T15:03:58;5.25;;;2.03;;
10387;SDS011;5240;51.128;4.566;2023-04-07T15:06:25;6.13;;;2.00;;
10387;SDS011;5240;51.128;4.566;2023-04-07T15:08:53;3.75;;;1.65;;